Time;durP1;ratioP1;P1;durP2;ratioP2;P2;SDS_P1;SDS_P2;PMS_P1;PMS_P2;Temp;Humidity;BMP_temperature;BMP_pressure;BME280_temperature;BME280_humidity;BME280_pressure;Samples;Min_cycle;Max_cycle;Signal;HPM_P1;HPM_P2
2023/10/23 00:00:23;;;;;;;19.20;1.83;;;8.70;99.90;;;9.41;100.00;97917.94;5028003;28;20829;-87
2023/10/23 00:02:52;;;;;;;2.80;1.63;;;8.50;99.90;;;9.38;100.00;97918.28;5025112;28;20583;-87
2023/10/23 00:05:22;;;;;;;2.07;1.40;;;8.60;99.90;;;9.39;100.00;97919.94;5027866;28;20518;-86
2023/10/23 00:07:52;;;;;;;1.37;1.17;;;8.50;99.90;;;9.39;100.00;97925.16;5028422;28;20457;-87
2023/10/23 00:10:22;;;;;;;3.07;1.47;;;8.50;99.90;;;9.43;100.00;97921.19;5026552;28;20493;-87
2023/10/23 00:12:53;;;;;;;4.20;1.50;;;8.60;99.90;;;9.42;100.00;97916.94;5026343;28;20524;-87
2023/10/23 00:15:24;;;;;;;4.00;1.53;;;8.50;99.90;;;9.42;100.00;97909.94;5028323;28;20484;-87
2023/10/23 00:17:53;;;;;;;6.20;1.50;;;8.50;99.90;;;9.36;100.00;97915.88;5031119;28;20466;-88
2023/10/23 00:20:24;;;;;;;15.20;1.27;;;8.50;99.90;;;9.30;100.00;97915.81;5029959;28;20572;-87
2023/10/23 00:22:54;;;;;;;7.97;1.57;;;8.40;99.90;;;9.35;100.00;97926.50;5030481;28;20465;-87
2023/10/23 00:25:24;;;;;;;11.40;1.53;;;8.50;99.90;;;9.42;100.00;97933.41;5031939;28;21023;-87
2023/10/23 00:27:55;;;;;;;7.30;1.60;;;8.50;99.90;;;9.37;100.00;97927.91;5030770;28;20465;-87
2023/10/23 00:30:25;;;;;;;7.60;1.83;;;8.60;99.90;;;9.29;100.00;97925.44;5029779;28;20493;-87
2023/10/23 00:32:54;;;;;;;3.80;1.40;;;8.50;99.90;;;9.29;100.00;97925.44;5028704;28;21126;-87
2023/10/23 00:35:25;;;;;;;3.70;1.63;;;8.50;99.90;;;9.30;100.00;97927.03;5031347;28;20469;-87
2023/10/23 00:37:56;;;;;;;3.03;1.53;;;8.50;99.90;;;9.33;100.00;97924.09;5030372;28;20844;-87
2023/10/23 00:40:26;;;;;;;3.20;1.73;;;8.50;99.90;;;9.33;100.00;97929.31;5030792;28;20465;-86
2023/10/23 00:42:57;;;;;;;2.70;1.47;;;8.50;99.90;;;9.36;100.00;97930.72;5031008;28;20466;-87
2023/10/23 00:45:26;;;;;;;4.20;2.43;;;8.50;99.90;;;9.36;100.00;97926.31;5031190;28;20458;-87
2023/10/23 00:47:58;;;;;;;4.83;1.93;;;8.50;99.90;;;9.36;100.00;97928.13;5031632;28;20545;-87
2023/10/23 00:50:28;;;;;;;10.23;1.50;;;8.50;99.90;;;9.36;100.00;97922.91;5030522;28;20588;-87
2023/10/23 00:52:59;;;;;;;2.00;1.53;;;8.50;99.90;;;9.39;100.00;97928.56;5030580;28;20466;-87
2023/10/23 00:55:31;;;;;;;13.70;1.87;;;8.50;99.90;;;9.44;100.00;97931.41;5030680;28;20505;-87
2023/10/23 00:58:01;;;;;;;15.63;1.90;;;8.60;99.90;;;9.42;100.00;97930.00;5030293;28;20462;-87
2023/10/23 01:00:34;;;;;;;2.83;1.50;;;8.60;99.90;;;9.43;100.00;97914.16;5029451;28;20454;-87
2023/10/23 01:03:04;;;;;;;12.40;1.93;;;8.60;99.90;;;9.45;100.00;97927.81;5030462;28;20536;-87
2023/10/23 01:05:34;;;;;;;2.97;1.37;;;8.60;99.90;;;9.43;100.00;97919.38;5031478;28;20470;-87
2023/10/23 01:08:05;;;;;;;13.30;2.20;;;8.60;99.90;;;9.47;100.00;97928.47;5031981;28;20472;-87
2023/10/23 01:10:34;;;;;;;12.40;1.60;;;8.60;99.90;;;9.43;100.00;97922.00;5028926;28;20505;-87
2023/10/23 01:13:08;;;;;;;13.10;1.50;;;8.50;99.90;;;9.51;100.00;97921.88;5031819;28;20496;-87
2023/10/23 01:15:39;;;;;;;18.47;3.00;;;8.60;99.90;;;9.55;100.00;97919.69;5030651;28;20813;-87
2023/10/23 01:18:08;;;;;;;11.70;1.57;;;8.70;99.90;;;9.46;100.00;97916.41;5034797;28;20472;-87
2023/10/23 01:20:38;;;;;;;9.43;1.80;;;8.60;99.90;;;9.43;100.00;97916.78;5028635;28;20453;-87
2023/10/23 01:23:08;;;;;;;18.27;2.20;;;8.50;99.90;;;9.39;100.00;97918.13;5032493;28;20477;-87
2023/10/23 01:25:39;;;;;;;7.50;1.60;;;8.50;99.90;;;9.43;100.00;97914.16;5032031;28;21453;-88
2023/10/23 01:28:08;;;;;;;5.80;1.30;;;8.50;99.90;;;9.44;100.00;97912.38;5027802;28;20466;-88
2023/10/23 01:30:38;;;;;;;4.50;1.80;;;8.50;99.90;;;9.50;100.00;97917.66;5031544;28;20521;-86
2023/10/23 01:33:09;;;;;;;6.83;1.40;;;8.60;99.90;;;9.51;100.00;97924.47;5030331;28;20458;-87
2023/10/23 01:35:39;;;;;;;14.40;1.50;;;8.60;99.90;;;9.49;100.00;97918.66;5028709;28;20458;-87
2023/10/23 01:38:09;;;;;;;6.93;1.90;;;8.60;99.90;;;9.48;100.00;97919.63;5030699;28;20925;-87
2023/10/23 01:40:39;;;;;;;17.53;2.13;;;8.60;99.90;;;9.44;100.00;97913.16;5031140;28;20462;-87
2023/10/23 01:43:09;;;;;;;14.03;1.70;;;8.60;99.90;;;9.45;100.00;97920.00;5029545;28;20557;-87
2023/10/23 01:45:40;;;;;;;5.43;1.30;;;8.50;99.90;;;9.47;100.00;97915.44;5030491;28;20588;-87
2023/10/23 01:48:10;;;;;;;7.13;1.80;;;8.60;99.90;;;9.47;100.00;97912.00;5030273;28;20502;-87
2023/10/23 01:50:40;;;;;;;2.20;1.23;;;8.60;99.90;;;9.45;100.00;97912.16;5030048;28;20500;-87
2023/10/23 01:53:10;;;;;;;3.80;1.43;;;8.50;99.90;;;9.38;100.00;97918.28;5030433;28;20461;-87
2023/10/23 01:55:41;;;;;;;8.00;1.50;;;8.70;99.90;;;9.28;100.00;97913.38;5033053;28;21197;-87
2023/10/23 01:58:12;;;;;;;9.30;1.37;;;8.70;99.90;;;9.23;100.00;97909.69;5029451;28;20481;-88
2023/10/23 02:00:43;;;;;;;3.47;1.27;;;8.70;99.90;;;9.13;100.00;97920.38;5029504;28;20466;-88
2023/10/23 02:03:13;;;;;;;13.87;1.50;;;8.70;99.90;;;9.08;100.00;97913.13;5029787;28;20475;-87
2023/10/23 02:05:46;;;;;;;1.57;1.30;;;8.50;99.90;;;9.09;100.00;97921.75;5028892;28;20460;-86
2023/10/23 02:08:23;;;;;;;23.17;1.50;;;8.50;99.90;;;9.06;100.00;97909.06;5028946;28;20461;-87
2023/10/23 02:10:55;;;;;;;6.23;1.40;;;8.50;99.90;;;9.00;100.00;97915.81;5029133;28;20501;-87
2023/10/23 02:13:26;;;;;;;7.70;1.47;;;8.60;99.90;;;8.91;100.00;97918.69;5029881;28;20469;-87
2023/10/23 02:15:55;;;;;;;5.90;1.33;;;8.50;99.90;;;8.83;100.00;97916.16;5028084;28;20466;-87
2023/10/23 02:18:27;;;;;;;6.30;1.40;;;8.50;99.90;;;8.85;100.00;97919.41;5027063;28;20914;-87
2023/10/23 02:20:57;;;;;;;9.70;1.20;;;8.50;99.90;;;8.86;100.00;97921.03;5030219;28;20492;-87
2023/10/23 02:23:27;;;;;;;16.63;1.30;;;8.30;99.90;;;8.83;100.00;97918.78;5032321;28;20596;-87
2023/10/23 02:26:04;;;;;;;1.80;1.10;;;8.40;99.90;;;8.77;100.00;97914.28;5030224;28;20577;-87
2023/10/23 02:28:34;;;;;;;1.83;1.23;;;8.30;99.90;;;8.71;100.00;97920.22;5030327;28;20507;-87
2023/10/23 02:31:06;;;;;;;5.43;1.40;;;8.30;99.90;;;8.71;100.00;97925.44;5030209;28;20573;-87
2023/10/23 02:33:36;;;;;;;3.27;1.57;;;8.30;99.90;;;8.67;100.00;97924.16;5032891;28;20457;-88
2023/10/23 02:36:06;;;;;;;2.80;1.43;;;8.30;99.90;;;8.61;100.00;97919.66;5029465;28;20489;-86
2023/10/23 02:38:37;;;;;;;1.77;1.10;;;8.20;99.90;;;8.57;100.00;97914.78;5029329;28;20488;-87
2023/10/23 02:41:08;;;;;;;3.73;1.20;;;8.20;99.90;;;8.59;100.00;97923.25;5028460;28;21045;-87
2023/10/23 02:43:39;;;;;;;4.70;1.20;;;8.10;99.90;;;8.63;100.00;97922.91;5030446;28;20466;-87
2023/10/23 02:46:09;;;;;;;1.20;1.07;;;8.10;99.90;;;8.65;100.00;97919.13;5026173;28;20466;-87
2023/10/23 02:48:39;;;;;;;1.63;1.33;;;8.00;99.90;;;8.61;100.00;97919.66;5028707;28;20855;-87
2023/10/23 02:51:09;;;;;;;7.00;1.10;;;8.00;99.90;;;8.56;100.00;97922.78;5029645;28;21090;-87
2023/10/23 02:53:39;;;;;;;1.93;1.13;;;7.90;99.90;;;8.55;100.00;97923.78;5029597;28;20896;-87
2023/10/23 02:56:13;;;;;;;1.57;1.20;;;7.90;99.90;;;8.58;100.00;97923.41;5027221;28;20501;-87
2023/10/23 02:58:43;;;;;;;1.37;1.00;;;7.90;99.90;;;8.47;100.00;97919.44;5029520;28;20458;-87
2023/10/23 03:01:19;;;;;;;1.80;1.50;;;7.90;99.90;;;8.44;100.00;97917.19;5027784;28;21128;-87
2023/10/23 03:03:49;;;;;;;2.67;1.77;;;8.00;99.90;;;8.45;100.00;97921.44;5027183;28;20633;-87
2023/10/23 03:06:20;;;;;;;6.17;1.20;;;7.90;99.90;;;8.44;100.00;97924.19;5028620;28;20466;-87
2023/10/23 03:08:50;;;;;;;7.10;1.40;;;7.90;99.90;;;8.42;100.00;97916.56;5031214;28;20553;-87
2023/10/23 03:11:20;;;;;;;2.03;1.40;;;8.00;99.90;;;8.41;100.00;97920.16;5029585;28;20489;-87
2023/10/23 03:13:52;;;;;;;4.10;1.70;;;7.90;99.90;;;8.42;100.00;97926.19;5028548;28;20473;-87
2023/10/23 03:16:24;;;;;;;11.40;1.60;;;8.00;99.90;;;8.37;100.00;97918.06;5030280;28;20547;-86
2023/10/23 03:18:55;;;;;;;3.83;1.10;;;8.00;99.90;;;8.24;100.00;97921.25;5030192;28;20460;-87
2023/10/23 03:21:26;;;;;;;1.23;1.00;;;7.90;99.90;;;8.13;100.00;97919.03;5028052;28;20465;-86
2023/10/23 03:23:58;;;;;;;11.63;1.20;;;7.80;99.90;;;8.14;100.00;97912.88;5028059;28;20475;-86
2023/10/23 03:26:30;;;;;;;6.60;0.90;;;7.70;99.90;;;8.13;100.00;97916.44;5029294;28;20485;-86
2023/10/23 03:29:00;;;;;;;6.13;1.07;;;7.60;99.90;;;8.09;100.00;97912.56;5029930;28;20491;-86
2023/10/23 03:31:32;;;;;;;2.43;1.03;;;7.70;99.90;;;8.10;100.00;97912.41;5025943;28;20489;-86
2023/10/23 03:34:02;;;;;;;5.30;1.40;;;7.60;99.90;;;8.04;100.00;97912.28;5027902;28;20457;-86
2023/10/23 03:36:34;;;;;;;3.57;1.17;;;7.50;99.90;;;8.04;100.00;97904.47;5028654;28;20988;-86
2023/10/23 03:39:04;;;;;;;8.40;1.30;;;7.40;99.90;;;8.01;100.00;97917.84;5027910;28;20461;-86
2023/10/23 03:41:36;;;;;;;1.10;1.00;;;7.40;99.90;;;8.05;100.00;97919.91;5028913;28;20458;-85
2023/10/23 03:44:08;;;;;;;1.07;0.97;;;7.40;99.90;;;7.96;100.00;97910.56;5027101;28;20462;-86
2023/10/23 03:46:40;;;;;;;1.13;1.00;;;7.40;99.90;;;8.04;100.00;97917.50;5028243;28;20490;-86
2023/10/23 03:49:10;;;;;;;3.33;1.30;;;7.40;99.90;;;8.10;100.00;97914.19;5027775;28;20469;-86
2023/10/23 03:51:40;;;;;;;1.20;0.90;;;7.40;99.90;;;8.04;100.00;97913.09;5031347;28;20494;-85
2023/10/23 03:54:10;;;;;;;1.47;1.13;;;7.40;99.90;;;8.02;100.00;97904.66;5032493;28;20466;-86
2023/10/23 03:56:41;;;;;;;3.47;0.90;;;7.30;99.90;;;7.97;100.00;97912.19;5030676;28;20540;-86
2023/10/23 03:59:11;;;;;;;1.63;1.07;;;7.30;99.90;;;7.99;100.00;97912.00;5030805;28;20458;-86
2023/10/23 04:01:41;;;;;;;2.63;1.23;;;7.30;99.90;;;8.02;100.00;97894.22;5030734;28;20462;-86
2023/10/23 04:04:14;;;;;;;14.13;1.30;;;7.20;99.90;;;7.94;100.00;97898.69;5031062;28;20468;-86
2023/10/23 04:06:45;;;;;;;1.83;1.00;;;7.20;99.90;;;7.78;100.00;97897.00;5033539;28;20459;-86
2023/10/23 04:09:15;;;;;;;1.73;1.10;;;7.10;99.90;;;7.72;100.00;97899.50;5031597;28;20472;-86
2023/10/23 04:11:46;;;;;;;9.00;1.10;;;7.00;99.90;;;7.67;100.00;97899.22;5029968;28;20491;-85
2023/10/23 04:14:19;;;;;;;1.00;0.90;;;6.90;99.90;;;7.69;100.00;97905.03;5033523;28;20465;-86
2023/10/23 04:16:49;;;;;;;0.80;0.80;;;6.90;99.90;;;7.66;100.00;97897.59;5031007;28;20503;-86
2023/10/23 04:19:19;;;;;;;1.47;1.13;;;6.90;99.90;;;7.62;100.00;97891.91;5031884;28;20469;-86
2023/10/23 04:22:12;;;;;;;1.40;1.20;;;6.80;99.90;;;7.60;100.00;97896.50;5029436;28;20541;-86
2023/10/23 04:24:42;;;;;;;4.20;1.00;;;6.70;99.90;;;7.59;100.00;97887.06;5030835;28;20468;-86
2023/10/23 04:27:13;;;;;;;16.73;1.20;;;6.80;99.90;;;7.53;100.00;97891.13;5029386;28;20477;-86
2023/10/23 04:29:43;;;;;;;1.27;1.17;;;6.60;99.90;;;7.47;100.00;97893.63;5031451;28;20458;-85
2023/10/23 04:32:13;;;;;;;1.40;1.00;;;6.60;99.90;;;7.57;100.00;97897.63;5028443;28;20497;-86
2023/10/23 04:34:42;;;;;;;1.57;1.10;;;6.70;99.90;;;7.55;100.00;97889.19;5029081;28;20474;-86
2023/10/23 04:37:12;;;;;;;6.10;1.20;;;6.70;99.90;;;7.51;100.00;97889.69;5029214;28;20462;-86
2023/10/23 04:39:43;;;;;;;2.83;1.00;;;6.70;99.90;;;7.32;100.00;97890.13;5028454;28;20493;-86
2023/10/23 04:42:15;;;;;;;5.53;1.03;;;6.70;99.90;;;7.19;100.00;97885.47;5029284;28;20521;-86
2023/10/23 04:44:49;;;;;;;4.93;1.20;;;6.70;99.90;;;7.25;100.00;97884.81;5029611;28;20528;-86
2023/10/23 04:47:21;;;;;;;5.00;1.40;;;6.60;99.90;;;7.27;100.00;97887.22;5031968;28;20466;-86
2023/10/23 04:49:51;;;;;;;3.37;1.10;;;6.70;99.90;;;7.16;100.00;97892.78;5034920;28;20460;-86
2023/10/23 04:52:23;;;;;;;2.57;1.23;;;6.60;99.90;;;7.18;100.00;97886.47;5031013;28;20490;-86
2023/10/23 04:54:56;;;;;;;3.37;1.17;;;6.50;99.90;;;7.09;100.00;97885.69;5030577;28;20548;-85
2023/10/23 04:57:32;;;;;;;1.03;0.93;;;6.50;99.90;;;7.15;100.00;97884.19;5030654;28;20585;-86
2023/10/23 05:00:10;;;;;;;0.80;0.80;;;6.50;99.90;;;7.11;100.00;97888.13;5036214;28;20489;-86
2023/10/23 05:02:48;;;;;;;3.27;1.40;;;6.50;99.90;;;7.16;100.00;97879.78;5033571;28;20468;-86
2023/10/23 05:05:20;;;;;;;2.07;1.87;;;6.50;99.90;;;7.22;100.00;97885.13;5032203;28;20545;-86
2023/10/23 05:07:52;;;;;;;15.53;1.73;;;6.50;99.90;;;7.19;100.00;97890.66;5031747;28;20469;-86
2023/10/23 05:10:23;;;;;;;3.50;1.40;;;6.50;99.90;;;7.28;100.00;97889.66;5032768;28;20479;-86
2023/10/23 05:12:55;;;;;;;9.53;1.53;;;6.50;99.90;;;7.25;100.00;97884.00;5029300;28;20548;-86
2023/10/23 05:15:28;;;;;;;6.90;4.60;;;6.50;99.90;;;7.27;100.00;97885.44;5030501;28;20484;-86
2023/10/23 05:18:00;;;;;;;2.33;1.20;;;6.50;99.90;;;7.19;100.00;97887.25;5029041;28;20454;-86
2023/10/23 05:20:30;;;;;;;1.00;0.90;;;6.50;99.90;;;7.17;100.00;97884.03;5025851;28;20960;-82
2023/10/23 05:23:00;;;;;;;1.27;1.10;;;6.50;99.90;;;7.10;100.00;97876.09;5025569;28;20532;-86
2023/10/23 05:25:35;;;;;;;2.40;1.20;;;6.50;99.90;;;7.08;100.00;97878.03;5026401;28;20992;-86
2023/10/23 05:28:07;;;;;;;5.93;2.00;;;6.50;99.90;;;7.14;100.00;97885.19;5027591;28;20470;-86
2023/10/23 05:30:38;;;;;;;3.93;1.77;;;6.50;99.90;;;7.19;100.00;97880.28;5027303;28;20514;-86
2023/10/23 05:33:08;;;;;;;6.50;1.90;;;6.50;99.90;;;7.22;100.00;97882.53;5029662;28;20499;-86
2023/10/23 05:35:37;;;;;;;2.77;2.20;;;6.50;99.90;;;7.18;100.00;97889.06;5026147;28;20516;-82
2023/10/23 05:38:07;;;;;;;1.53;1.43;;;6.40;99.90;;;7.16;100.00;97885.81;5028267;28;20557;-79
2023/10/23 05:40:38;;;;;;;2.80;1.20;;;6.30;99.90;;;7.08;100.00;97883.22;5026531;28;20465;-82
2023/10/23 05:43:10;;;;;;;2.57;1.10;;;6.40;99.90;;;7.02;100.00;97883.91;5029533;28;20464;-79
2023/10/23 05:45:40;;;;;;;3.60;1.27;;;6.50;99.90;;;6.99;100.00;97885.06;5024902;28;20935;-82
2023/10/23 05:48:10;;;;;;;1.73;1.40;;;6.40;99.90;;;6.88;100.00;97885.44;5023742;28;20505;-82
2023/10/23 05:50:41;;;;;;;1.90;1.30;;;6.30;99.90;;;6.91;100.00;97884.28;5023316;28;20457;-83
2023/10/23 05:53:12;;;;;;;7.83;1.70;;;6.30;99.90;;;6.97;100.00;97887.03;5025119;28;20593;-81
2023/10/23 05:55:42;;;;;;;10.33;1.93;;;6.30;99.90;;;6.98;100.00;97904.25;5028487;28;20472;-82
2023/10/23 05:58:15;;;;;;;3.70;1.50;;;6.40;99.90;;;6.99;100.00;97900.66;5026467;28;20956;-82
2023/10/23 06:00:45;;;;;;;5.30;1.60;;;6.40;99.90;;;7.00;100.00;97901.47;5029753;28;20892;-82
2023/10/23 06:03:16;;;;;;;2.10;1.50;;;6.40;99.90;;;7.06;100.00;97906.00;5026976;28;20463;-81
2023/10/23 06:05:46;;;;;;;1.53;1.30;;;6.30;99.90;;;7.04;100.00;97907.97;5025819;28;20458;-81
2023/10/23 06:08:16;;;;;;;5.00;1.40;;;6.30;99.90;;;7.06;100.00;97906.00;5028092;28;20496;-81
2023/10/23 06:10:46;;;;;;;3.43;1.63;;;6.40;99.90;;;7.10;100.00;97912.50;5029283;28;20808;-81
2023/10/23 06:13:18;;;;;;;6.50;2.03;;;6.50;99.90;;;7.11;100.00;97905.50;5028337;28;20498;-81
2023/10/23 06:15:47;;;;;;;7.40;1.23;;;6.50;99.90;;;7.07;100.00;97899.84;5026790;28;20466;-81
2023/10/23 06:18:19;;;;;;;5.23;1.60;;;6.40;99.90;;;7.13;100.00;97896.56;5025732;28;21052;-81
2023/10/23 06:20:57;;;;;;;13.23;2.00;;;6.40;99.90;;;7.13;100.00;97891.34;5027131;28;21152;-81
2023/10/23 06:23:27;;;;;;;1.93;1.63;;;6.40;99.90;;;7.06;100.00;97890.41;5026572;28;20470;-81
2023/10/23 06:25:57;;;;;;;1.60;1.40;;;6.40;99.90;;;7.09;100.00;97895.25;5026614;28;20482;-81
2023/10/23 06:28:28;;;;;;;2.43;1.30;;;6.30;99.90;;;7.07;100.00;97892.84;5029244;28;20553;-82
2023/10/23 06:30:57;;;;;;;4.93;1.40;;;6.20;99.90;;;7.15;100.00;97889.38;5029110;28;20469;-81
2023/10/23 06:33:28;;;;;;;3.80;1.50;;;6.30;99.90;;;7.14;100.00;97889.56;5023464;28;20505;-81
2023/10/23 06:36:00;;;;;;;5.00;1.60;;;6.30;99.90;;;7.09;100.00;97884.88;5023526;28;20561;-82
2023/10/23 06:38:31;;;;;;;6.80;1.40;;;6.30;99.90;;;7.13;100.00;97899.16;5025628;28;20453;-82
2023/10/23 06:41:04;;;;;;;2.27;1.57;;;6.30;99.90;;;7.17;100.00;97894.44;5027391;28;20500;-82
2023/10/23 06:43:37;;;;;;;2.83;1.50;;;6.50;99.90;;;7.11;100.00;97897.72;5027655;28;20497;-82
2023/10/23 06:46:08;;;;;;;5.53;1.40;;;6.30;99.90;;;7.07;100.00;97892.03;5024979;28;20543;-82
2023/10/23 06:48:44;;;;;;;2.30;1.20;;;6.30;99.90;;;7.12;100.00;97881.94;5025115;28;20460;-81
2023/10/23 06:51:14;;;;;;;7.20;1.80;;;6.30;99.90;;;7.16;100.00;97885.00;5025772;28;20561;-81
2023/10/23 06:53:45;;;;;;;4.20;1.80;;;6.40;99.90;;;7.13;100.00;97893.94;5022450;28;20486;-78
2023/10/23 06:56:15;;;;;;;9.50;1.67;;;6.50;99.90;;;7.17;100.00;97892.63;5022670;28;20564;-82
2023/10/23 06:58:48;;;;;;;1.70;1.23;;;6.40;99.90;;;7.05;100.00;97888.78;5024627;28;20461;-81
2023/10/23 07:01:18;;;;;;;5.57;2.07;;;6.40;99.90;;;7.08;100.00;97888.44;5022460;28;20462;-82
2023/10/23 07:04:03;;;;;;;3.90;1.50;;;6.30;99.90;;;6.99;100.00;97882.47;5025064;28;20464;-82
2023/10/23 07:06:33;;;;;;;4.20;1.97;;;6.20;99.90;;;7.02;100.00;97873.53;5024429;28;20453;-82
2023/10/23 07:09:04;;;;;;;9.20;1.53;;;6.20;99.90;;;7.04;100.00;97871.56;5023309;28;20493;-82
2023/10/23 07:11:34;;;;;;;1.50;1.27;;;6.30;99.90;;;7.11;100.00;97872.53;5021497;28;20565;-82
2023/10/23 07:14:07;;;;;;;3.20;2.00;;;6.40;99.90;;;7.14;100.00;97882.59;5023038;28;20490;-82
2023/10/23 07:16:37;;;;;;;4.27;1.80;;;6.40;99.90;;;7.20;100.00;97887.09;5024860;28;20524;-82
2023/10/23 07:19:08;;;;;;;2.40;1.70;;;6.40;99.90;;;7.23;100.00;97891.97;5024758;28;20541;-82
2023/10/23 07:21:39;;;;;;;2.90;1.70;;;6.50;99.90;;;7.30;100.00;97887.69;5025416;28;20465;-82
2023/10/23 07:24:11;;;;;;;6.60;1.87;;;6.60;99.90;;;7.32;100.00;97887.53;5027174;28;20585;-82
2023/10/23 07:26:41;;;;;;;3.63;2.13;;;6.50;99.90;;;7.26;100.00;97885.59;5026562;28;20481;-82
2023/10/23 07:29:12;;;;;;;6.33;2.00;;;6.50;99.90;;;7.26;100.00;97883.00;5030735;28;21073;-82
2023/10/23 07:31:41;;;;;;;3.60;1.80;;;6.50;99.90;;;7.32;100.00;97880.56;5028890;28;20522;-82
2023/10/23 07:34:11;;;;;;;5.87;2.40;;;6.50;99.90;;;7.37;100.00;97872.22;5031974;28;20918;-82
2023/10/23 07:36:43;;;;;;;14.77;2.40;;;6.60;99.90;;;7.39;100.00;97865.84;5029737;28;20489;-81
2023/10/23 07:39:13;;;;;;;4.00;2.30;;;6.60;99.90;;;7.41;100.00;97863.91;5029815;28;20601;-82
2023/10/23 07:41:43;;;;;;;7.13;2.10;;;6.70;99.90;;;7.47;100.00;97858.00;5025147;28;20972;-81
2023/10/23 07:44:14;;;;;;;6.80;2.53;;;6.70;99.90;;;7.52;100.00;97858.31;5034291;28;20461;-81
2023/10/23 07:46:46;;;;;;;6.67;1.70;;;6.80;99.90;;;7.60;100.00;97858.25;5026502;28;20603;-82
2023/10/23 07:49:16;;;;;;;7.13;2.47;;;6.90;99.90;;;7.66;100.00;97871.56;5027552;28;20485;-81
2023/10/23 07:51:48;;;;;;;6.37;2.50;;;7.00;99.90;;;7.72;100.00;97863.88;5027268;28;20528;-82
2023/10/23 07:54:19;;;;;;;23.60;2.23;;;7.00;99.90;;;7.72;100.00;97870.88;5029452;28;20856;-82
2023/10/23 07:56:49;;;;;;;2.90;2.17;;;7.00;99.90;;;7.78;100.00;97870.97;5026605;28;20463;-78
2023/10/23 07:59:21;;;;;;;6.60;2.90;;;7.10;99.90;;;7.83;100.00;97870.47;5025369;28;21055;-81
2023/10/23 08:01:52;;;;;;;3.80;2.50;;;7.10;99.90;;;7.86;100.00;97862.31;5029606;28;20464;-81
2023/10/23 08:04:22;;;;;;;11.13;2.50;;;7.20;99.90;;;7.89;100.00;97861.97;5029779;28;20557;-81
2023/10/23 08:06:52;;;;;;;3.70;2.23;;;7.20;99.90;;;7.95;100.00;97866.47;5031415;28;20976;-81
2023/10/23 08:09:24;;;;;;;8.27;2.57;;;7.30;99.90;;;8.03;100.00;97851.59;5032099;28;20484;-81
2023/10/23 08:11:54;;;;;;;5.13;2.70;;;7.30;99.90;;;8.13;100.00;97858.34;5028000;28;20469;-83
2023/10/23 08:14:24;;;;;;;5.10;1.90;;;7.30;99.90;;;8.18;100.00;97856.84;5028196;28;20506;-82
2023/10/23 08:16:55;;;;;;;3.27;1.80;;;7.40;99.90;;;8.18;100.00;97856.03;5025973;28;20464;-82
2023/10/23 08:19:26;;;;;;;7.00;2.67;;;7.40;99.90;;;8.17;100.00;97850.00;5029879;28;20910;-83
2023/10/23 08:21:55;;;;;;;7.53;2.60;;;7.50;99.90;;;8.16;100.00;97837.19;5024921;28;20580;-82
2023/10/23 08:24:25;;;;;;;3.70;2.20;;;7.40;99.90;;;8.20;100.00;97834.03;5026516;28;20475;-82
2023/10/23 08:26:55;;;;;;;3.67;2.03;;;7.50;99.90;;;8.31;100.00;97831.03;5030128;28;20466;-81
2023/10/23 08:29:28;;;;;;;5.07;2.80;;;7.60;99.90;;;8.36;100.00;97833.91;5041983;28;20466;-82
2023/10/23 08:31:59;;;;;;;5.37;2.77;;;7.60;99.90;;;8.40;100.00;97829.94;5025122;28;20471;-82
2023/10/23 08:34:28;;;;;;;2.93;1.93;;;7.60;99.90;;;8.41;100.00;97834.19;5026574;28;20493;-82
2023/10/23 08:36:59;;;;;;;9.20;2.50;;;7.70;99.90;;;8.46;100.00;97837.06;5028339;28;20464;-82
2023/10/23 08:39:30;;;;;;;12.50;3.27;;;7.80;99.90;;;8.54;100.00;97839.56;5026864;28;20535;-81
2023/10/23 08:42:00;;;;;;;5.10;3.00;;;7.80;99.90;;;8.58;100.00;97837.41;5028415;28;20462;-82
2023/10/23 08:44:32;;;;;;;7.33;2.93;;;7.80;99.90;;;8.61;100.00;97847.47;5028488;28;20466;-81
2023/10/23 08:47:03;;;;;;;7.43;2.80;;;7.80;99.90;;;8.66;100.00;97833.91;5024843;28;21082;-82
2023/10/23 08:49:34;;;;;;;5.23;2.87;;;7.90;99.90;;;8.74;100.00;97832.03;5025603;28;20470;-81
2023/10/23 08:52:10;;;;;;;5.60;2.90;;;7.90;99.90;;;8.77;100.00;97831.69;5027673;28;21039;-80
2023/10/23 08:54:42;;;;;;;7.47;2.70;;;8.00;99.90;;;8.86;100.00;97841.00;5025940;28;20497;-81
2023/10/23 08:57:19;;;;;;;5.77;2.53;;;8.10;99.90;;;8.91;100.00;97830.03;5028234;28;20474;-82
2023/10/23 08:59:50;;;;;;;3.80;2.57;;;8.20;99.90;;;8.95;100.00;97834.72;5027331;28;20856;-81
2023/10/23 09:02:19;;;;;;;4.03;2.10;;;8.20;99.90;;;9.00;100.00;97828.94;5025658;28;20520;-78
2023/10/23 09:04:49;;;;;;;5.13;1.70;;;8.20;99.90;;;9.02;100.00;97825.16;5028237;28;20472;-81
2023/10/23 09:07:19;;;;;;;3.60;1.90;;;8.30;99.90;;;9.08;100.00;97821.84;5024582;28;20470;-81
2023/10/23 09:09:49;;;;;;;3.27;1.97;;;8.30;99.90;;;9.18;100.00;97824.16;5030209;28;20465;-80
2023/10/23 09:12:31;;;;;;;3.27;2.20;;;8.40;99.90;;;9.23;100.00;97811.38;5025139;28;20472;-80
2023/10/23 09:15:14;;;;;;;3.60;2.07;;;8.50;99.90;;;9.30;100.00;97817.44;5029603;28;21047;-80
2023/10/23 09:17:45;;;;;;;4.23;2.40;;;8.50;99.90;;;9.36;100.00;97803.69;5028396;28;20828;-80
2023/10/23 09:20:23;;;;;;;4.67;2.40;;;8.60;99.90;;;9.40;100.00;97801.50;5025347;28;20501;-81
2023/10/23 09:22:58;;;;;;;5.83;2.87;;;8.60;99.90;;;9.43;100.00;97801.13;5026328;28;20477;-81
2023/10/23 09:25:28;;;;;;;4.40;2.37;;;8.60;99.90;;;9.46;100.00;97796.34;5029554;28;20520;-80
2023/10/23 09:28:00;;;;;;;5.83;2.30;;;8.70;99.90;;;9.49;100.00;97780.31;5026208;28;20469;-81
2023/10/23 09:30:30;;;;;;;6.80;2.37;;;8.70;99.90;;;9.55;100.00;97794.41;5026485;28;20462;-80
2023/10/23 09:33:01;;;;;;;4.53;2.50;;;8.80;99.90;;;9.58;100.00;97783.59;5026414;28;20450;-80
2023/10/23 09:35:31;;;;;;;5.10;2.70;;;8.80;99.90;;;9.61;100.00;97784.03;5029785;28;20502;-80
2023/10/23 09:38:12;;;;;;;3.93;2.53;;;8.90;99.90;;;9.67;100.00;97771.25;5026765;28;20477;-80
2023/10/23 09:40:42;;;;;;;5.03;2.30;;;8.90;99.90;;;9.72;100.00;97781.94;5024435;28;20519;-80
2023/10/23 09:43:13;;;;;;;3.73;2.30;;;9.00;99.90;;;9.75;100.00;97778.94;5027330;28;20469;-80
2023/10/23 09:45:45;;;;;;;4.27;2.20;;;9.10;99.90;;;9.83;100.00;97755.28;5024859;28;20465;-80
2023/10/23 09:48:17;;;;;;;3.20;2.20;;;9.10;99.90;;;9.86;100.00;97765.34;5028754;28;20899;-80
2023/10/23 09:50:50;;;;;;;3.73;1.87;;;9.20;99.90;;;9.91;100.00;97763.81;5027038;28;20984;-80
2023/10/23 09:53:23;;;;;;;4.53;2.27;;;9.20;99.90;;;10.01;100.00;97784.38;5026458;28;20473;-80
2023/10/23 09:55:57;;;;;;;2.50;1.80;;;9.30;99.90;;;10.07;100.00;97786.22;5027211;28;20505;-80
2023/10/23 09:58:35;;;;;;;5.83;1.80;;;9.40;99.90;;;10.13;100.00;97775.03;5027556;28;26184;-80
2023/10/23 10:01:09;;;;;;;2.10;1.60;;;9.40;99.90;;;10.17;100.00;97773.66;5024733;28;20454;-80
2023/10/23 10:03:43;;;;;;;3.60;1.47;;;9.50;99.90;;;10.22;100.00;97776.50;5025104;28;20469;-80
2023/10/23 10:06:23;;;;;;;8.07;1.93;;;9.50;99.90;;;10.25;100.00;97780.53;5027201;28;20471;-81
2023/10/23 10:08:57;;;;;;;4.70;2.03;;;9.60;99.90;;;10.30;100.00;97778.19;5027367;28;20472;-80
2023/10/23 10:11:27;;;;;;;3.20;2.23;;;9.60;99.90;;;10.35;100.00;97784.44;5024511;28;20524;-81
2023/10/23 10:13:59;;;;;;;3.00;1.97;;;9.70;99.90;;;10.37;100.00;97779.84;5027936;28;20802;-81
2023/10/23 10:16:29;;;;;;;2.80;1.70;;;9.70;99.90;;;10.39;100.00;97774.41;5027115;28;20493;-81
2023/10/23 10:18:59;;;;;;;3.50;1.87;;;9.80;99.90;;;10.41;100.00;97770.59;5026449;28;20497;-81
2023/10/23 10:21:34;;;;;;;7.70;2.10;;;9.80;99.90;;;10.46;100.00;97770.00;5026734;28;20465;-81
2023/10/23 10:24:05;;;;;;;5.93;1.60;;;9.80;99.90;;;10.49;100.00;97762.59;5025281;28;21247;-79
2023/10/23 10:26:35;;;;;;;10.30;2.17;;;9.90;99.90;;;10.51;100.00;97746.72;5026195;28;20983;-81
2023/10/23 10:29:05;;;;;;;4.10;1.87;;;9.90;99.90;;;10.56;100.00;97741.72;5024521;28;20470;-81
2023/10/23 10:32:09;;;;;;;9.70;2.00;;;9.90;99.90;;;10.64;100.00;97738.13;5025149;28;20477;-81
2023/10/23 10:34:53;;;;;;;4.43;2.27;;;9.90;99.90;;;10.67;100.00;97737.75;5028026;28;20462;-81
2023/10/23 10:37:30;;;;;;;4.03;2.50;;;10.00;99.90;;;10.70;100.00;97721.66;5026253;28;20971;-82
2023/10/23 10:40:28;;;;;;;3.77;1.77;;;10.10;99.90;;;10.76;100.00;97728.75;5028308;28;20457;-82
2023/10/23 10:43:06;;;;;;;3.97;2.13;;;10.10;99.90;;;10.78;100.00;97730.16;5027834;28;20559;-82